sensor_id;sensor_type;location;lat;lon;timestamp;temperature;humidity
17007;DHT22;8620;51.168;4.154;2022-12-07T00:00:31;5.50;99.90
17007;DHT22;8620;51.168;4.154;2022-12-07T00:02:59;5.40;99.90
17007;DHT22;8620;51.168;4.154;2022-12-07T00:05:29;5.50;99.90
17007;DHT22;8620;51.168;4.154;2022-12-07T00:07:55;5.40;99.90
17007;DHT22;8620;51.168;4.154;2022-12-07T00:10:21;5.30;99.90
17007;DHT22;8620;51.168;4.154;2022-12-07T00:12:58;5.30;99.90
17007;DHT22;8620;51.168;4.154;2022-12-07T00:15:24;5.30;99.90
17007;DHT22;8620;51.168;4.154;2022-12-07T00:17:52;5.30;99.90
17007;DHT22;8620;51.168;4.154;2022-12-07T00:20:18;5.20;99.90
17007;DHT22;8620;51.168;4.154;2022-12-07T00:22:44;5.30;99.90
17007;DHT22;8620;51.168;4.154;2022-12-07T00:25:10;5.30;99.90
17007;DHT22;8620;51.168;4.154;2022-12-07T00:27:36;5.40;99.90
17007;DHT22;8620;51.168;4.154;2022-12-07T00:30:05;5.40;99.90
17007;DHT22;8620;51.168;4.154;2022-12-07T00:32:32;5.30;99.90
17007;DHT22;8620;51.168;4.154;2022-12-07T00:35:06;5.50;99.90
17007;DHT22;8620;51.168;4.154;2022-12-07T00:37:34;5.60;99.90
17007;DHT22;8620;51.168;4.154;2022-12-07T00:40:11;5.70;99.90
17007;DHT22;8620;51.168;4.154;2022-12-07T00:42:37;5.70;99.90
17007;DHT22;8620;51.168;4.154;2022-12-07T00:45:03;5.70;99.90
17007;DHT22;8620;51.168;4.154;2022-12-07T00:47:32;5.90;99.90
17007;DHT22;8620;51.168;4.154;2022-12-07T00:49:58;6.00;99.90
17007;DHT22;8620;51.168;4.154;2022-12-07T00:52:25;6.20;99.90
17007;DHT22;8620;51.168;4.154;2022-12-07T00:54:57;6.20;99.90
17007;DHT22;8620;51.168;4.154;2022-12-07T00:57:25;6.20;99.90
17007;DHT22;8620;51.168;4.154;2022-12-07T00:59:54;6.20;99.90
17007;DHT22;8620;51.168;4.154;2022-12-07T01:02:32;6.10;99.90
17007;DHT22;8620;51.168;4.154;2022-12-07T01:05:21;5.80;99.90
17007;DHT22;8620;51.168;4.154;2022-12-07T01:08:08;5.70;99.90
17007;DHT22;8620;51.168;4.154;2022-12-07T01:11:03;5.80;99.90
17007;DHT22;8620;51.168;4.154;2022-12-07T01:13:43;5.80;99.90
17007;DHT22;8620;51.168;4.154;2022-12-07T01:16:34;5.70;99.90
17007;DHT22;8620;51.168;4.154;2022-12-07T01:19:43;5.80;99.90
17007;DHT22;8620;51.168;4.154;2022-12-07T01:22:51;5.70;99.90
17007;DHT22;8620;51.168;4.154;2022-12-07T01:25:52;6.00;99.90
17007;DHT22;8620;51.168;4.154;2022-12-07T01:28:34;6.00;99.90
17007;DHT22;8620;51.168;4.154;2022-12-07T01:31:24;5.90;99.90
17007;DHT22;8620;51.168;4.154;2022-12-07T01:34:28;5.80;99.90
17007;DHT22;8620;51.168;4.154;2022-12-07T01:37:51;5.80;99.90
17007;DHT22;8620;51.168;4.154;2022-12-07T01:40:19;5.70;99.90
17007;DHT22;8620;51.168;4.154;2022-12-07T01:42:48;5.70;99.90
17007;DHT22;8620;51.168;4.154;2022-12-07T01:45:37;5.90;99.90
17007;DHT22;8620;51.168;4.154;2022-12-07T01:48:05;6.00;99.90
17007;DHT22;8620;51.168;4.154;2022-12-07T01:50:44;6.00;99.90
17007;DHT22;8620;51.168;4.154;2022-12-07T01:53:21;5.90;99.90
17007;DHT22;8620;51.168;4.154;2022-12-07T01:56:20;5.80;99.90
17007;DHT22;8620;51.168;4.154;2022-12-07T01:58:54;5.80;99.90
17007;DHT22;8620;51.168;4.154;2022-12-07T02:02:07;5.70;99.90
17007;DHT22;8620;51.168;4.154;2022-12-07T02:04:59;5.70;99.90
17007;DHT22;8620;51.168;4.154;2022-12-07T02:07:54;5.90;99.90
17007;DHT22;8620;51.168;4.154;2022-12-07T02:10:47;5.70;99.90
17007;DHT22;8620;51.168;4.154;2022-12-07T02:13:48;5.80;99.90
17007;DHT22;8620;51.168;4.154;2022-12-07T02:32:17;6.00;99.90
17007;DHT22;8620;51.168;4.154;2022-12-07T02:38:37;5.80;99.90
17007;DHT22;8620;51.168;4.154;2022-12-07T02:41:32;5.80;99.90
17007;DHT22;8620;51.168;4.154;2022-12-07T02:44:13;6.00;99.90
17007;DHT22;8620;51.168;4.154;2022-12-07T02:47:03;5.90;99.90
17007;DHT22;8620;51.168;4.154;2022-12-07T02:49:41;5.90;99.90
17007;DHT22;8620;51.168;4.154;2022-12-07T02:52:32;6.00;99.90
17007;DHT22;8620;51.168;4.154;2022-12-07T02:55:23;5.90;99.90
17007;DHT22;8620;51.168;4.154;2022-12-07T03:16:53;6.40;99.90
17007;DHT22;8620;51.168;4.154;2022-12-07T03:19:45;6.30;99.90
17007;DHT22;8620;51.168;4.154;2022-12-07T03:22:32;6.20;99.90
17007;DHT22;8620;51.168;4.154;2022-12-07T03:25:37;5.80;99.90
17007;DHT22;8620;51.168;4.154;2022-12-07T03:28:47;5.60;99.90
17007;DHT22;8620;51.168;4.154;2022-12-07T03:31:34;5.60;99.90
17007;DHT22;8620;51.168;4.154;2022-12-07T03:34:44;5.70;99.90
17007;DHT22;8620;51.168;4.154;2022-12-07T03:37:38;5.80;99.90
17007;DHT22;8620;51.168;4.154;2022-12-07T03:43:25;6.20;99.90
17007;DHT22;8620;51.168;4.154;2022-12-07T03:49:01;5.80;99.90
17007;DHT22;8620;51.168;4.154;2022-12-07T03:55:30;5.70;99.90
17007;DHT22;8620;51.168;4.154;2022-12-07T03:58:32;5.80;99.90
17007;DHT22;8620;51.168;4.154;2022-12-07T04:01:10;6.10;99.90
17007;DHT22;8620;51.168;4.154;2022-12-07T04:03:41;5.90;99.90
17007;DHT22;8620;51.168;4.154;2022-12-07T04:06:33;5.70;99.90
17007;DHT22;8620;51.168;4.154;2022-12-07T04:09:17;5.50;99.90
17007;DHT22;8620;51.168;4.154;2022-12-07T04:12:09;5.50;99.90
17007;DHT22;8620;51.168;4.154;2022-12-07T04:15:01;5.60;99.90
17007;DHT22;8620;51.168;4.154;2022-12-07T04:17:48;5.50;99.90
17007;DHT22;8620;51.168;4.154;2022-12-07T04:21:01;5.30;99.90
17007;DHT22;8620;51.168;4.154;2022-12-07T04:23:52;5.30;99.90
17007;DHT22;8620;51.168;4.154;2022-12-07T04:26:23;5.60;99.90
17007;DHT22;8620;51.168;4.154;2022-12-07T04:29:12;5.60;99.90
17007;DHT22;8620;51.168;4.154;2022-12-07T04:32:05;5.60;99.90
17007;DHT22;8620;51.168;4.154;2022-12-07T04:35:09;5.60;99.90
17007;DHT22;8620;51.168;4.154;2022-12-07T04:37:55;5.40;99.90
17007;DHT22;8620;51.168;4.154;2022-12-07T04:40:44;5.60;99.90
17007;DHT22;8620;51.168;4.154;2022-12-07T04:43:36;5.70;99.90
17007;DHT22;8620;51.168;4.154;2022-12-07T04:46:36;5.70;99.90
17007;DHT22;8620;51.168;4.154;2022-12-07T04:49:16;5.60;99.90
17007;DHT22;8620;51.168;4.154;2022-12-07T04:51:52;5.90;99.90
17007;DHT22;8620;51.168;4.154;2022-12-07T04:54:41;6.10;99.90
17007;DHT22;8620;51.168;4.154;2022-12-07T04:57:12;6.20;99.90
17007;DHT22;8620;51.168;4.154;2022-12-07T04:59:48;5.90;99.90
17007;DHT22;8620;51.168;4.154;2022-12-07T05:02:28;5.80;99.90
17007;DHT22;8620;51.168;4.154;2022-12-07T05:05:03;6.00;99.90
17007;DHT22;8620;51.168;4.154;2022-12-07T05:07:32;6.10;99.90
17007;DHT22;8620;51.168;4.154;2022-12-07T05:10:09;6.10;99.90
17007;DHT22;8620;51.168;4.154;2022-12-07T05:12:41;6.00;99.90
17007;DHT22;8620;51.168;4.154;2022-12-07T05:15:10;6.00;99.90
17007;DHT22;8620;51.168;4.154;2022-12-07T05:17:52;5.90;99.90
17007;DHT22;8620;51.168;4.154;2022-12-07T05:20:26;5.80;99.90
17007;DHT22;8620;51.168;4.154;2022-12-07T05:23:00;5.60;99.90
17007;DHT22;8620;51.168;4.154;2022-12-07T05:25:34;5.50;99.90
17007;DHT22;8620;51.168;4.154;2022-12-07T05:28:12;5.70;99.90
17007;DHT22;8620;51.168;4.154;2022-12-07T05:30:38;5.70;99.90
17007;DHT22;8620;51.168;4.154;2022-12-07T05:33:20;5.80;99.90
17007;DHT22;8620;51.168;4.154;2022-12-07T05:36:04;6.00;99.90
17007;DHT22;8620;51.168;4.154;2022-12-07T05:38:40;6.20;99.90
17007;DHT22;8620;51.168;4.154;2022-12-07T05:41:22;6.30;99.90
17007;DHT22;8620;51.168;4.154;2022-12-07T05:44:29;6.10;99.90
17007;DHT22;8620;51.168;4.154;2022-12-07T05:47:06;6.10;99.90
17007;DHT22;8620;51.168;4.154;2022-12-07T05:50:01;6.00;99.90
17007;DHT22;8620;51.168;4.154;2022-12-07T05:53:10;5.70;99.90
17007;DHT22;8620;51.168;4.154;2022-12-07T05:56:01;5.50;99.90
17007;DHT22;8620;51.168;4.154;2022-12-07T05:58:53;5.50;99.90
17007;DHT22;8620;51.168;4.154;2022-12-07T06:02:16;5.70;99.90
17007;DHT22;8620;51.168;4.154;2022-12-07T06:08:09;6.10;99.90
17007;DHT22;8620;51.168;4.154;2022-12-07T06:10:51;6.00;99.90
17007;DHT22;8620;51.168;4.154;2022-12-07T06:13:42;6.00;99.90
17007;DHT22;8620;51.168;4.154;2022-12-07T06:16:15;6.00;99.90
17007;DHT22;8620;51.168;4.154;2022-12-07T06:18:47;6.00;99.90
17007;DHT22;8620;51.168;4.154;2022-12-07T06:21:18;5.80;99.90
17007;DHT22;8620;51.168;4.154;2022-12-07T06:24:04;5.90;99.90
17007;DHT22;8620;51.168;4.154;2022-12-07T06:27:03;6.00;99.90
17007;DHT22;8620;51.168;4.154;2022-12-07T06:29:56;5.80;99.90
17007;DHT22;8620;51.168;4.154;2022-12-07T06:32:34;5.70;99.90
17007;DHT22;8620;51.168;4.154;2022-12-07T06:35:28;5.90;99.90
17007;DHT22;8620;51.168;4.154;2022-12-07T06:38:08;6.20;99.90
17007;DHT22;8620;51.168;4.154;2022-12-07T06:40:34;6.40;99.90
17007;DHT22;8620;51.168;4.154;2022-12-07T06:43:13;6.20;99.90
17007;DHT22;8620;51.168;4.154;2022-12-07T06:45:56;5.80;99.90
17007;DHT22;8620;51.168;4.154;2022-12-07T06:48:35;5.80;99.90
17007;DHT22;8620;51.168;4.154;2022-12-07T06:51:06;5.80;99.90
17007;DHT22;8620;51.168;4.154;2022-12-07T06:53:32;5.60;99.90
17007;DHT22;8620;51.168;4.154;2022-12-07T06:56:18;5.70;99.90
17007;DHT22;8620;51.168;4.154;2022-12-07T06:58:47;5.50;99.90
17007;DHT22;8620;51.168;4.154;2022-12-07T07:01:19;5.50;99.90
17007;DHT22;8620;51.168;4.154;2022-12-07T07:04:04;5.30;99.90
17007;DHT22;8620;51.168;4.154;2022-12-07T07:06:41;5.20;99.90
17007;DHT22;8620;51.168;4.154;2022-12-07T07:09:57;5.20;99.90
17007;DHT22;8620;51.168;4.154;2022-12-07T07:12:53;5.20;99.90
17007;DHT22;8620;51.168;4.154;2022-12-07T07:15:31;5.20;99.90
17007;DHT22;8620;51.168;4.154;2022-12-07T07:18:01;5.20;99.90
17007;DHT22;8620;51.168;4.154;2022-12-07T07:20:31;5.30;99.90
17007;DHT22;8620;51.168;4.154;2022-12-07T07:23:29;5.10;99.90
17007;DHT22;8620;51.168;4.154;2022-12-07T07:26:17;5.10;99.90
17007;DHT22;8620;51.168;4.154;2022-12-07T07:29:03;5.30;99.90
17007;DHT22;8620;51.168;4.154;2022-12-07T07:31:53;5.10;99.90
17007;DHT22;8620;51.168;4.154;2022-12-07T07:34:20;5.10;99.90
17007;DHT22;8620;51.168;4.154;2022-12-07T07:36:58;5.40;99.90
17007;DHT22;8620;51.168;4.154;2022-12-07T07:40:04;5.30;99.90
17007;DHT22;8620;51.168;4.154;2022-12-07T07:46:04;5.30;99.90
17007;DHT22;8620;51.168;4.154;2022-12-07T07:48:39;5.30;99.90
17007;DHT22;8620;51.168;4.154;2022-12-07T07:51:10;5.30;99.90
17007;DHT22;8620;51.168;4.154;2022-12-07T07:53:55;5.40;99.90
17007;DHT22;8620;51.168;4.154;2022-12-07T07:56:50;5.50;99.90
17007;DHT22;8620;51.168;4.154;2022-12-07T07:59:56;5.60;99.90
17007;DHT22;8620;51.168;4.154;2022-12-07T08:02:28;5.40;99.90
17007;DHT22;8620;51.168;4.154;2022-12-07T08:05:22;5.20;99.90
17007;DHT22;8620;51.168;4.154;2022-12-07T08:07:51;5.30;99.90
17007;DHT22;8620;51.168;4.154;2022-12-07T08:10:24;5.40;99.90
17007;DHT22;8620;51.168;4.154;2022-12-07T08:12:50;5.50;99.90
17007;DHT22;8620;51.168;4.154;2022-12-07T08:15:40;5.80;99.90
17007;DHT22;8620;51.168;4.154;2022-12-07T08:18:08;5.90;99.90
17007;DHT22;8620;51.168;4.154;2022-12-07T08:20:38;6.10;99.90
17007;DHT22;8620;51.168;4.154;2022-12-07T08:23:10;6.30;99.90
17007;DHT22;8620;51.168;4.154;2022-12-07T08:25:40;6.50;99.90
17007;DHT22;8620;51.168;4.154;2022-12-07T08:31:04;6.00;99.90
17007;DHT22;8620;51.168;4.154;2022-12-07T08:33:32;5.80;99.90
17007;DHT22;8620;51.168;4.154;2022-12-07T08:36:03;5.70;99.90
17007;DHT22;8620;51.168;4.154;2022-12-07T08:38:30;5.50;99.90
17007;DHT22;8620;51.168;4.154;2022-12-07T08:41:05;5.60;99.90
17007;DHT22;8620;51.168;4.154;2022-12-07T08:43:31;5.80;99.90
17007;DHT22;8620;51.168;4.154;2022-12-07T08:49:38;6.10;99.90
17007;DHT22;8620;51.168;4.154;2022-12-07T08:52:07;6.20;99.90
17007;DHT22;8620;51.168;4.154;2022-12-07T08:54:36;6.60;99.90
17007;DHT22;8620;51.168;4.154;2022-12-07T08:57:05;6.30;99.90
17007;DHT22;8620;51.168;4.154;2022-12-07T08:59:33;6.10;99.90
17007;DHT22;8620;51.168;4.154;2022-12-07T09:02:00;6.40;99.90
17007;DHT22;8620;51.168;4.154;2022-12-07T09:04:26;6.30;99.90
17007;DHT22;8620;51.168;4.154;2022-12-07T09:06:54;6.20;99.90
17007;DHT22;8620;51.168;4.154;2022-12-07T09:09:20;6.20;99.90
17007;DHT22;8620;51.168;4.154;2022-12-07T09:11:46;6.20;99.90
17007;DHT22;8620;51.168;4.154;2022-12-07T09:14:12;6.10;99.90
17007;DHT22;8620;51.168;4.154;2022-12-07T09:16:39;6.20;99.90
17007;DHT22;8620;51.168;4.154;2022-12-07T09:19:08;6.00;99.90
17007;DHT22;8620;51.168;4.154;2022-12-07T09:21:36;5.90;99.90
17007;DHT22;8620;51.168;4.154;2022-12-07T09:24:05;5.80;99.90
17007;DHT22;8620;51.168;4.154;2022-12-07T09:26:31;5.70;99.90
17007;DHT22;8620;51.168;4.154;2022-12-07T09:29:00;5.70;99.90
17007;DHT22;8620;51.168;4.154;2022-12-07T09:31:27;5.90;99.90
17007;DHT22;8620;51.168;4.154;2022-12-07T09:34:01;5.90;99.90
17007;DHT22;8620;51.168;4.154;2022-12-07T09:36:31;5.80;99.90
17007;DHT22;8620;51.168;4.154;2022-12-07T09:39:17;5.70;99.90
17007;DHT22;8620;51.168;4.154;2022-12-07T09:41:47;5.80;99.90
17007;DHT22;8620;51.168;4.154;2022-12-07T09:44:27;5.80;99.90
17007;DHT22;8620;51.168;4.154;2022-12-07T09:46:56;5.80;99.90
17007;DHT22;8620;51.168;4.154;2022-12-07T09:49:28;5.90;99.90
17007;DHT22;8620;51.168;4.154;2022-12-07T09:54:50;6.30;99.90
17007;DHT22;8620;51.168;4.154;2022-12-07T09:57:17;6.40;99.90
17007;DHT22;8620;51.168;4.154;2022-12-07T09:59:47;6.40;99.90
17007;DHT22;8620;51.168;4.154;2022-12-07T10:02:37;6.60;99.90
17007;DHT22;8620;51.168;4.154;2022-12-07T10:05:13;6.60;99.90
17007;DHT22;8620;51.168;4.154;2022-12-07T10:07:45;6.40;99.90
17007;DHT22;8620;51.168;4.154;2022-12-07T10:10:17;6.60;99.90
17007;DHT22;8620;51.168;4.154;2022-12-07T10:13:10;7.00;99.90
17007;DHT22;8620;51.168;4.154;2022-12-07T10:18:39;7.30;99.90
17007;DHT22;8620;51.168;4.154;2022-12-07T10:33:34;6.60;99.90
17007;DHT22;8620;51.168;4.154;2022-12-07T10:39:00;7.30;99.90
17007;DHT22;8620;51.168;4.154;2022-12-07T10:41:29;7.90;99.90
17007;DHT22;8620;51.168;4.154;2022-12-07T10:43:57;8.50;99.90
17007;DHT22;8620;51.168;4.154;2022-12-07T10:47:14;8.90;99.90
17007;DHT22;8620;51.168;4.154;2022-12-07T10:53:04;8.90;99.90
17007;DHT22;8620;51.168;4.154;2022-12-07T11:02:09;8.90;99.90
17007;DHT22;8620;51.168;4.154;2022-12-07T11:05:01;9.20;99.90
17007;DHT22;8620;51.168;4.154;2022-12-07T11:08:18;8.90;99.90
17007;DHT22;8620;51.168;4.154;2022-12-07T11:11:12;8.40;99.90
17007;DHT22;8620;51.168;4.154;2022-12-07T11:17:11;8.20;99.90
17007;DHT22;8620;51.168;4.154;2022-12-07T11:20:24;8.40;99.90
17007;DHT22;8620;51.168;4.154;2022-12-07T11:23:23;8.00;99.90
17007;DHT22;8620;51.168;4.154;2022-12-07T11:41:47;7.70;99.90
17007;DHT22;8620;51.168;4.154;2022-12-07T11:54:38;7.60;99.90
17007;DHT22;8620;51.168;4.154;2022-12-07T11:57:20;7.90;99.90
17007;DHT22;8620;51.168;4.154;2022-12-07T12:00:16;8.10;99.90
17007;DHT22;8620;51.168;4.154;2022-12-07T12:03:20;8.70;99.90
17007;DHT22;8620;51.168;4.154;2022-12-07T12:06:14;8.50;99.90
17007;DHT22;8620;51.168;4.154;2022-12-07T12:17:35;9.00;99.90
17007;DHT22;8620;51.168;4.154;2022-12-07T12:20:40;9.10;99.90
17007;DHT22;8620;51.168;4.154;2022-12-07T12:24:02;8.80;99.90
17007;DHT22;8620;51.168;4.154;2022-12-07T12:26:49;8.30;99.90
17007;DHT22;8620;51.168;4.154;2022-12-07T12:29:37;7.90;99.90
17007;DHT22;8620;51.168;4.154;2022-12-07T12:32:22;7.70;99.90
17007;DHT22;8620;51.168;4.154;2022-12-07T12:37:54;8.00;99.90
17007;DHT22;8620;51.168;4.154;2022-12-07T12:43:26;7.90;99.90
17007;DHT22;8620;51.168;4.154;2022-12-07T12:53:28;8.70;99.90
17007;DHT22;8620;51.168;4.154;2022-12-07T13:02:22;8.40;99.90
17007;DHT22;8620;51.168;4.154;2022-12-07T13:05:29;8.40;99.90
17007;DHT22;8620;51.168;4.154;2022-12-07T13:07:56;8.20;99.90
17007;DHT22;8620;51.168;4.154;2022-12-07T13:10:42;8.10;99.90
17007;DHT22;8620;51.168;4.154;2022-12-07T13:28:19;7.60;99.90
17007;DHT22;8620;51.168;4.154;2022-12-07T13:31:23;7.40;99.90
17007;DHT22;8620;51.168;4.154;2022-12-07T13:34:52;7.20;99.90
17007;DHT22;8620;51.168;4.154;2022-12-07T13:37:47;7.00;99.90
17007;DHT22;8620;51.168;4.154;2022-12-07T13:40:30;7.20;99.90
17007;DHT22;8620;51.168;4.154;2022-12-07T13:43:04;7.30;99.90
17007;DHT22;8620;51.168;4.154;2022-12-07T13:49:22;7.40;99.90
17007;DHT22;8620;51.168;4.154;2022-12-07T13:52:24;7.40;99.90
17007;DHT22;8620;51.168;4.154;2022-12-07T13:55:16;7.50;99.90
17007;DHT22;8620;51.168;4.154;2022-12-07T13:58:05;7.60;99.90
17007;DHT22;8620;51.168;4.154;2022-12-07T14:00:42;7.60;99.90
17007;DHT22;8620;51.168;4.154;2022-12-07T14:03:49;7.50;99.90
17007;DHT22;8620;51.168;4.154;2022-12-07T14:06:31;7.10;99.90
17007;DHT22;8620;51.168;4.154;2022-12-07T14:09:17;7.00;99.90
17007;DHT22;8620;51.168;4.154;2022-12-07T14:12:24;6.70;99.90
17007;DHT22;8620;51.168;4.154;2022-12-07T14:21:54;6.90;99.90
17007;DHT22;8620;51.168;4.154;2022-12-07T14:24:17;6.80;99.90
17007;DHT22;8620;51.168;4.154;2022-12-07T14:26:51;6.70;99.90
17007;DHT22;8620;51.168;4.154;2022-12-07T14:29:32;6.80;99.90
17007;DHT22;8620;51.168;4.154;2022-12-07T14:35:21;7.10;99.90
17007;DHT22;8620;51.168;4.154;2022-12-07T14:37:56;7.20;99.90
17007;DHT22;8620;51.168;4.154;2022-12-07T14:40:29;7.30;99.90
17007;DHT22;8620;51.168;4.154;2022-12-07T14:43:08;7.00;99.90
17007;DHT22;8620;51.168;4.154;2022-12-07T14:45:38;6.90;99.90
17007;DHT22;8620;51.168;4.154;2022-12-07T14:51:17;6.60;99.90
17007;DHT22;8620;51.168;4.154;2022-12-07T14:53:55;6.60;99.90
17007;DHT22;8620;51.168;4.154;2022-12-07T14:56:30;6.60;99.90
17007;DHT22;8620;51.168;4.154;2022-12-07T14:59:01;6.70;99.90
17007;DHT22;8620;51.168;4.154;2022-12-07T15:01:33;6.60;99.90
17007;DHT22;8620;51.168;4.154;2022-12-07T15:04:09;6.80;99.90
17007;DHT22;8620;51.168;4.154;2022-12-07T15:06:48;6.80;99.90
17007;DHT22;8620;51.168;4.154;2022-12-07T15:09:23;6.80;99.90
17007;DHT22;8620;51.168;4.154;2022-12-07T15:12:10;6.90;99.90
17007;DHT22;8620;51.168;4.154;2022-12-07T15:14:41;7.00;99.90
17007;DHT22;8620;51.168;4.154;2022-12-07T15:17:13;7.20;99.90
17007;DHT22;8620;51.168;4.154;2022-12-07T15:20:11;7.10;99.90
17007;DHT22;8620;51.168;4.154;2022-12-07T15:22:42;7.20;99.90
17007;DHT22;8620;51.168;4.154;2022-12-07T15:25:18;7.10;99.90
17007;DHT22;8620;51.168;4.154;2022-12-07T15:27:55;7.30;99.90
17007;DHT22;8620;51.168;4.154;2022-12-07T15:30:29;7.30;99.90
17007;DHT22;8620;51.168;4.154;2022-12-07T15:33:27;7.20;99.90
17007;DHT22;8620;51.168;4.154;2022-12-07T15:35:53;7.40;99.90
17007;DHT22;8620;51.168;4.154;2022-12-07T15:38:29;7.40;99.90
17007;DHT22;8620;51.168;4.154;2022-12-07T15:41:27;7.40;99.90
17007;DHT22;8620;51.168;4.154;2022-12-07T15:43:59;7.40;99.90
17007;DHT22;8620;51.168;4.154;2022-12-07T15:46:43;7.50;99.90
17007;DHT22;8620;51.168;4.154;2022-12-07T15:49:12;7.50;99.90
17007;DHT22;8620;51.168;4.154;2022-12-07T15:51:43;7.40;99.90
17007;DHT22;8620;51.168;4.154;2022-12-07T15:54:24;7.30;99.90
17007;DHT22;8620;51.168;4.154;2022-12-07T15:56:54;7.10;99.90
17007;DHT22;8620;51.168;4.154;2022-12-07T15:59:37;7.20;99.90
17007;DHT22;8620;51.168;4.154;2022-12-07T16:02:42;7.10;99.90
17007;DHT22;8620;51.168;4.154;2022-12-07T16:05:08;7.10;99.90
17007;DHT22;8620;51.168;4.154;2022-12-07T16:08:08;6.70;99.90
17007;DHT22;8620;51.168;4.154;2022-12-07T16:11:03;6.30;99.90
17007;DHT22;8620;51.168;4.154;2022-12-07T16:14:00;6.10;99.90
17007;DHT22;8620;51.168;4.154;2022-12-07T16:16:31;6.10;99.90
17007;DHT22;8620;51.168;4.154;2022-12-07T16:19:00;5.90;99.90
17007;DHT22;8620;51.168;4.154;2022-12-07T16:21:28;6.00;99.90
17007;DHT22;8620;51.168;4.154;2022-12-07T16:24:18;5.90;99.90
17007;DHT22;8620;51.168;4.154;2022-12-07T16:27:05;5.90;99.90
17007;DHT22;8620;51.168;4.154;2022-12-07T16:29:43;5.90;99.90
17007;DHT22;8620;51.168;4.154;2022-12-07T16:32:09;6.10;99.90
17007;DHT22;8620;51.168;4.154;2022-12-07T16:34:48;6.30;99.90
17007;DHT22;8620;51.168;4.154;2022-12-07T16:37:17;6.40;99.90
17007;DHT22;8620;51.168;4.154;2022-12-07T16:39:46;6.40;99.90
17007;DHT22;8620;51.168;4.154;2022-12-07T16:42:38;6.40;99.90
17007;DHT22;8620;51.168;4.154;2022-12-07T16:45:24;6.40;99.90
17007;DHT22;8620;51.168;4.154;2022-12-07T16:47:53;6.20;99.90
17007;DHT22;8620;51.168;4.154;2022-12-07T16:50:21;6.10;99.90
17007;DHT22;8620;51.168;4.154;2022-12-07T16:52:47;6.10;99.90
17007;DHT22;8620;51.168;4.154;2022-12-07T16:55:13;6.10;99.90
17007;DHT22;8620;51.168;4.154;2022-12-07T16:57:40;6.00;99.90
17007;DHT22;8620;51.168;4.154;2022-12-07T17:00:10;6.00;99.90
17007;DHT22;8620;51.168;4.154;2022-12-07T17:02:56;6.10;99.90
17007;DHT22;8620;51.168;4.154;2022-12-07T17:05:24;6.00;99.90
17007;DHT22;8620;51.168;4.154;2022-12-07T17:08:00;6.10;99.90
17007;DHT22;8620;51.168;4.154;2022-12-07T17:10:34;6.20;99.90
17007;DHT22;8620;51.168;4.154;2022-12-07T17:13:05;6.10;99.90
17007;DHT22;8620;51.168;4.154;2022-12-07T17:16:03;6.00;99.90
17007;DHT22;8620;51.168;4.154;2022-12-07T17:18:36;5.90;99.90
17007;DHT22;8620;51.168;4.154;2022-12-07T17:21:07;5.70;99.90
17007;DHT22;8620;51.168;4.154;2022-12-07T17:23:37;5.80;99.90
17007;DHT22;8620;51.168;4.154;2022-12-07T17:26:46;5.90;99.90
17007;DHT22;8620;51.168;4.154;2022-12-07T17:29:17;5.80;99.90
17007;DHT22;8620;51.168;4.154;2022-12-07T17:31:47;5.90;99.90
17007;DHT22;8620;51.168;4.154;2022-12-07T17:34:16;5.90;99.90
17007;DHT22;8620;51.168;4.154;2022-12-07T17:36:42;6.10;99.90
17007;DHT22;8620;51.168;4.154;2022-12-07T17:39:09;6.10;99.90
17007;DHT22;8620;51.168;4.154;2022-12-07T17:41:37;6.10;99.90
17007;DHT22;8620;51.168;4.154;2022-12-07T17:44:28;5.90;99.90
17007;DHT22;8620;51.168;4.154;2022-12-07T17:46:54;5.90;99.90
17007;DHT22;8620;51.168;4.154;2022-12-07T17:49:22;5.90;99.90
17007;DHT22;8620;51.168;4.154;2022-12-07T17:51:49;6.00;99.90
17007;DHT22;8620;51.168;4.154;2022-12-07T17:54:33;6.10;99.90
17007;DHT22;8620;51.168;4.154;2022-12-07T17:57:14;6.00;99.90
17007;DHT22;8620;51.168;4.154;2022-12-07T17:59:40;6.00;99.90
17007;DHT22;8620;51.168;4.154;2022-12-07T18:02:08;6.00;99.90
17007;DHT22;8620;51.168;4.154;2022-12-07T18:05:05;5.80;99.90
17007;DHT22;8620;51.168;4.154;2022-12-07T18:07:32;5.70;99.90
17007;DHT22;8620;51.168;4.154;2022-12-07T18:09:58;5.80;99.90
17007;DHT22;8620;51.168;4.154;2022-12-07T18:12:24;5.70;99.90
17007;DHT22;8620;51.168;4.154;2022-12-07T18:14:53;5.60;99.90
17007;DHT22;8620;51.168;4.154;2022-12-07T18:17:23;5.50;99.90
17007;DHT22;8620;51.168;4.154;2022-12-07T18:19:58;5.70;99.90
17007;DHT22;8620;51.168;4.154;2022-12-07T18:22:27;5.50;99.90
17007;DHT22;8620;51.168;4.154;2022-12-07T18:25:13;5.40;99.90
17007;DHT22;8620;51.168;4.154;2022-12-07T18:27:48;5.40;99.90
17007;DHT22;8620;51.168;4.154;2022-12-07T18:30:53;5.40;99.90
17007;DHT22;8620;51.168;4.154;2022-12-07T18:33:20;5.30;99.90
17007;DHT22;8620;51.168;4.154;2022-12-07T18:35:51;5.30;99.90
17007;DHT22;8620;51.168;4.154;2022-12-07T18:38:41;5.30;99.90
17007;DHT22;8620;51.168;4.154;2022-12-07T18:41:14;5.20;99.90
17007;DHT22;8620;51.168;4.154;2022-12-07T18:43:42;5.20;99.90
17007;DHT22;8620;51.168;4.154;2022-12-07T18:46:19;5.30;99.90
17007;DHT22;8620;51.168;4.154;2022-12-07T18:48:48;5.30;99.90
17007;DHT22;8620;51.168;4.154;2022-12-07T18:51:15;5.30;99.90
17007;DHT22;8620;51.168;4.154;2022-12-07T18:53:43;5.20;99.90
17007;DHT22;8620;51.168;4.154;2022-12-07T18:56:28;5.20;99.90
17007;DHT22;8620;51.168;4.154;2022-12-07T18:59:12;5.30;99.90
17007;DHT22;8620;51.168;4.154;2022-12-07T19:02:04;5.20;99.90
17007;DHT22;8620;51.168;4.154;2022-12-07T19:04:34;5.20;99.90
17007;DHT22;8620;51.168;4.154;2022-12-07T19:07:02;5.10;99.90
17007;DHT22;8620;51.168;4.154;2022-12-07T19:09:28;5.10;99.90
17007;DHT22;8620;51.168;4.154;2022-12-07T19:12:01;5.10;99.90
17007;DHT22;8620;51.168;4.154;2022-12-07T19:14:29;5.10;99.90
17007;DHT22;8620;51.168;4.154;2022-12-07T19:17:04;5.10;99.90
17007;DHT22;8620;51.168;4.154;2022-12-07T19:19:39;5.00;99.90
17007;DHT22;8620;51.168;4.154;2022-12-07T19:22:13;5.10;99.90
17007;DHT22;8620;51.168;4.154;2022-12-07T19:24:49;5.00;99.90
17007;DHT22;8620;51.168;4.154;2022-12-07T19:27:17;5.00;99.90
17007;DHT22;8620;51.168;4.154;2022-12-07T19:29:52;5.00;99.90
17007;DHT22;8620;51.168;4.154;2022-12-07T19:32:52;5.00;99.90
17007;DHT22;8620;51.168;4.154;2022-12-07T19:35:35;5.00;99.90
17007;DHT22;8620;51.168;4.154;2022-12-07T19:38:04;4.80;99.90
17007;DHT22;8620;51.168;4.154;2022-12-07T19:40:52;4.90;99.90
17007;DHT22;8620;51.168;4.154;2022-12-07T19:43:18;4.80;99.90
17007;DHT22;8620;51.168;4.154;2022-12-07T19:45:45;4.80;99.90
17007;DHT22;8620;51.168;4.154;2022-12-07T19:48:11;4.80;99.90
17007;DHT22;8620;51.168;4.154;2022-12-07T19:50:37;4.90;99.90
17007;DHT22;8620;51.168;4.154;2022-12-07T19:53:28;4.90;99.90
17007;DHT22;8620;51.168;4.154;2022-12-07T19:56:57;4.90;99.90
17007;DHT22;8620;51.168;4.154;2022-12-07T19:59:53;4.90;99.90
17007;DHT22;8620;51.168;4.154;2022-12-07T20:02:51;5.00;99.90
17007;DHT22;8620;51.168;4.154;2022-12-07T20:05:40;5.10;99.90
17007;DHT22;8620;51.168;4.154;2022-12-07T20:11:45;5.10;99.90
17007;DHT22;8620;51.168;4.154;2022-12-07T20:15:00;5.10;99.90
17007;DHT22;8620;51.168;4.154;2022-12-07T20:17:52;5.30;99.90
17007;DHT22;8620;51.168;4.154;2022-12-07T20:24:04;5.20;99.90
17007;DHT22;8620;51.168;4.154;2022-12-07T20:33:30;5.20;99.90
17007;DHT22;8620;51.168;4.154;2022-12-07T20:36:26;5.40;99.90
17007;DHT22;8620;51.168;4.154;2022-12-07T20:39:19;5.50;99.90
17007;DHT22;8620;51.168;4.154;2022-12-07T20:42:17;5.50;99.90